createdAt,value
2019-02-16T00:00:05.702Z,97561.70
2019-02-16T00:02:34.095Z,97553.84
2019-02-16T00:05:02.600Z,97554.41
2019-02-16T00:07:31.126Z,97553.10
2019-02-16T00:09:59.531Z,97553.67
2019-02-16T00:12:27.932Z,97556.38
2019-02-16T00:14:56.498Z,97557.42
2019-02-16T00:17:24.908Z,97554.06
2019-02-16T00:19:53.316Z,97556.52
2019-02-16T00:22:21.939Z,97556.60
2019-02-16T00:24:50.340Z,97556.52
2019-02-16T00:27:18.749Z,97551.94
2019-02-16T00:29:47.172Z,97562.32
2019-02-16T00:32:15.714Z,97560.75
2019-02-16T00:34:44.186Z,97549.14
2019-02-16T00:37:13.018Z,97550.55
2019-02-16T00:39:41.450Z,97549.23
2019-02-16T00:42:09.848Z,97548.97
2019-02-16T00:44:38.444Z,97544.56
2019-02-16T00:47:09.230Z,97548.67
2019-02-16T00:49:36.957Z,97546.97
2019-02-16T00:52:05.543Z,97548.75
2019-02-16T00:54:33.936Z,97544.83
2019-02-16T00:57:02.332Z,97539.69
2019-02-16T00:59:30.829Z,97542.13
2019-02-16T01:01:59.298Z,97535.31
2019-02-16T01:04:27.808Z,97534.09
2019-02-16T01:06:56.246Z,97536.75
2019-02-16T01:09:24.660Z,97534.14
2019-02-16T01:11:55.772Z,97529.64
2019-02-16T01:14:24.390Z,97531.16
2019-02-16T01:16:52.822Z,97533.03
2019-02-16T01:19:21.212Z,97529.11
2019-02-16T01:21:49.626Z,97527.15
2019-02-16T01:24:18.024Z,97524.71
2019-02-16T01:26:46.418Z,97521.70
2019-02-16T01:29:15.122Z,97524.23
2019-02-16T01:31:43.510Z,97513.20
2019-02-16T01:34:13.785Z,97511.42
2019-02-16T01:36:42.260Z,97506.48
2019-02-16T01:39:12.224Z,97497.42
2019-02-16T01:41:40.619Z,97500.59
2019-02-16T01:44:09.106Z,97506.30
2019-02-16T01:46:37.505Z,97492.48
2019-02-16T01:49:05.917Z,97493.05
2019-02-16T01:51:34.347Z,97489.39
2019-02-16T01:54:02.734Z,97489.75
2019-02-16T01:56:31.136Z,97501.08
2019-02-16T01:58:59.546Z,97493.31
2019-02-16T02:01:27.939Z,97485.94
2019-02-16T02:03:56.380Z,97475.83
2019-02-16T02:06:25.157Z,97468.28
2019-02-16T02:08:53.555Z,97479.23
2019-02-16T02:11:22.005Z,97461.48
2019-02-16T02:13:50.546Z,97458.56
2019-02-16T02:16:18.942Z,97452.50
2019-02-16T02:18:47.339Z,97442.96
2019-02-16T02:21:15.884Z,97443.83
2019-02-16T02:23:44.277Z,97452.20
2019-02-16T02:26:12.662Z,97443.91
2019-02-16T02:28:41.220Z,97441.38
2019-02-16T02:31:09.614Z,97444.66
2019-02-16T02:33:38.011Z,97443.08
2019-02-16T02:36:06.531Z,97437.20
2019-02-16T02:38:34.922Z,97447.48
2019-02-16T02:41:03.321Z,97450.84
2019-02-16T02:43:31.850Z,97447.84
2019-02-16T02:46:00.310Z,97438.69
2019-02-16T02:48:28.707Z,97437.77
2019-02-16T02:50:57.333Z,97439.64
2019-02-16T02:53:31.074Z,97437.64
2019-02-16T02:55:55.856Z,97441.56
2019-02-16T02:58:24.446Z,97449.06
2019-02-16T03:00:52.807Z,97447.84
2019-02-16T03:03:21.242Z,97449.15
2019-02-16T03:05:49.704Z,97449.06
2019-02-16T03:08:18.092Z,97445.70
2019-02-16T03:10:46.484Z,97444.48
2019-02-16T03:13:15.305Z,97448.49
2019-02-16T03:15:43.698Z,97454.67
2019-02-16T03:18:12.098Z,97456.08
2019-02-16T03:20:40.558Z,97458.21
2019-02-16T03:23:16.209Z,97454.77
2019-02-16T03:25:50.427Z,97460.56
2019-02-16T03:28:49.464Z,97460.38
2019-02-16T03:31:54.223Z,97457.59
2019-02-16T03:34:51.609Z,97458.59
2019-02-16T03:37:57.992Z,97455.98
2019-02-16T03:40:26.727Z,97464.12
2019-02-16T03:42:55.121Z,97456.27
2019-02-16T03:45:23.923Z,97469.90
2019-02-16T03:47:55.254Z,97462.53
2019-02-16T03:50:23.670Z,97465.97
2019-02-16T03:52:52.113Z,97462.53
2019-02-16T03:55:20.537Z,97465.23
2019-02-16T03:57:48.922Z,97464.40
2019-02-16T04:00:17.466Z,97460.65
2019-02-16T04:02:45.865Z,97459.25
2019-02-16T04:05:14.262Z,97458.52
2019-02-16T04:07:42.740Z,97460.64
2019-02-16T04:10:11.130Z,97457.84
2019-02-16T04:12:39.551Z,97465.75
2019-02-16T04:15:08.141Z,97468.59
2019-02-16T04:17:36.562Z,97470.31
2019-02-16T04:20:06.893Z,97472.48
2019-02-16T04:22:35.318Z,97465.13
2019-02-16T04:25:03.887Z,97479.36
2019-02-16T04:27:33.825Z,97482.59
2019-02-16T04:30:02.251Z,97476.36
2019-02-16T04:32:30.645Z,97478.48
2019-02-16T04:34:59.051Z,97489.70
2019-02-16T04:37:27.457Z,97484.08
2019-02-16T04:39:55.968Z,97481.29
2019-02-16T04:42:24.423Z,97483.22
2019-02-16T04:44:52.899Z,97483.95
2019-02-16T04:47:21.301Z,97483.18
2019-02-16T04:49:49.737Z,97477.58
2019-02-16T04:52:18.155Z,97478.49
2019-02-16T04:54:46.559Z,97469.75
2019-02-16T04:57:14.965Z,97475.40
2019-02-16T04:59:43.561Z,97480.63
2019-02-16T05:02:12.017Z,97478.48
2019-02-16T05:04:40.411Z,97465.42
2019-02-16T05:07:09.206Z,97474.84
2019-02-16T05:09:37.595Z,97475.78
2019-02-16T05:12:06.059Z,97481.56
2019-02-16T05:14:34.658Z,97482.17
2019-02-16T05:17:03.104Z,97494.52
2019-02-16T05:19:31.561Z,97490.00
2019-02-16T05:22:00.009Z,97497.30
2019-02-16T05:24:28.418Z,97493.94
2019-02-16T05:26:56.835Z,97500.11
2019-02-16T05:29:25.439Z,97498.02
2019-02-16T05:31:53.953Z,97502.38
2019-02-16T05:34:22.290Z,97510.02
2019-02-16T05:36:50.884Z,97511.20
2019-02-16T05:39:19.286Z,97522.90
2019-02-16T05:41:47.684Z,97522.64
2019-02-16T05:44:16.116Z,97532.83
2019-02-16T05:46:46.022Z,97540.78
2019-02-16T05:49:14.423Z,97539.97
2019-02-16T05:51:43.001Z,97548.17
2019-02-16T05:54:11.401Z,97550.92
2019-02-16T05:56:39.795Z,97555.50
2019-02-16T05:59:08.359Z,97550.50
2019-02-16T06:01:36.797Z,97552.20
2019-02-16T06:04:05.191Z,97549.66
2019-02-16T06:06:33.621Z,97551.32
2019-02-16T06:09:02.017Z,97558.09
2019-02-16T06:11:30.415Z,97561.63
2019-02-16T06:13:58.832Z,97577.39
2019-02-16T06:16:27.225Z,97574.50
2019-02-16T06:18:55.617Z,97575.44
2019-02-16T06:21:24.460Z,97581.56
2019-02-16T06:23:52.847Z,97581.09
2019-02-16T06:26:21.235Z,97585.25
2019-02-16T06:28:49.899Z,97594.25
2019-02-16T06:31:18.288Z,97587.38
2019-02-16T06:33:46.711Z,97602.23
2019-02-16T06:36:16.777Z,97602.08
2019-02-16T06:38:45.187Z,97606.28
2019-02-16T06:41:13.574Z,97607.50
2019-02-16T06:43:42.326Z,97609.49
2019-02-16T06:46:10.715Z,97613.06
2019-02-16T06:48:39.193Z,97615.80
2019-02-16T06:51:07.768Z,97620.01
2019-02-16T06:53:36.162Z,97623.56
2019-02-16T06:56:06.206Z,97630.19
2019-02-16T06:58:34.644Z,97633.18
2019-02-16T07:01:04.546Z,97633.81
2019-02-16T07:03:32.970Z,97636.97
2019-02-16T07:06:01.418Z,97637.50
2019-02-16T07:08:29.889Z,97633.47
2019-02-16T07:10:58.280Z,97635.04
2019-02-16T07:13:27.352Z,97636.61
2019-02-16T07:16:13.288Z,97640.89
2019-02-16T07:18:46.258Z,97635.58
2019-02-16T07:21:14.667Z,97638.08
2019-02-16T07:23:43.122Z,97639.66
2019-02-16T07:26:11.538Z,97633.47
2019-02-16T07:28:39.940Z,97632.11
2019-02-16T07:31:08.333Z,97628.28
2019-02-16T07:33:36.924Z,97627.19
2019-02-16T07:36:05.316Z,97631.70
2019-02-16T07:38:33.779Z,97632.83
2019-02-16T07:41:02.393Z,97637.95
2019-02-16T07:43:50.476Z,97632.25
2019-02-16T07:46:20.546Z,97633.00
2019-02-16T07:49:08.613Z,97626.46
2019-02-16T07:51:47.285Z,97626.46
2019-02-16T07:54:29.398Z,97623.72
2019-02-16T07:56:59.592Z,97622.32
2019-02-16T07:59:32.584Z,97619.66
2019-02-16T08:02:09.206Z,97620.58
2019-02-16T08:04:41.985Z,97628.64
2019-02-16T08:07:28.319Z,97618.04
2019-02-16T08:09:58.358Z,97616.55
2019-02-16T08:12:33.857Z,97608.03
2019-02-16T08:15:03.898Z,97612.12
2019-02-16T08:17:50.618Z,97612.69
2019-02-16T08:20:20.662Z,97614.91
2019-02-16T08:22:50.702Z,97607.56
2019-02-16T08:25:26.769Z,97615.98
2019-02-16T08:27:56.808Z,97614.27
2019-02-16T08:30:32.888Z,97606.73
2019-02-16T08:33:02.922Z,97609.42
2019-02-16T08:35:39.146Z,97610.34
2019-02-16T08:38:25.440Z,97592.41
2019-02-16T08:40:55.505Z,97599.86
2019-02-16T08:43:39.763Z,97603.38
2019-02-16T08:46:15.160Z,97604.84
2019-02-16T08:48:51.164Z,97588.34
2019-02-16T08:51:21.408Z,97594.70
2019-02-16T08:53:53.855Z,97590.92
2019-02-16T08:56:32.862Z,97585.83
2019-02-16T08:59:08.914Z,97596.38
2019-02-16T09:01:41.631Z,97582.26
2019-02-16T09:04:23.818Z,97581.98
2019-02-16T09:06:53.898Z,97592.09
2019-02-16T09:09:35.817Z,97573.36
2019-02-16T09:12:18.174Z,97579.73
2019-02-16T09:15:04.480Z,97576.32
2019-02-16T09:17:37.527Z,97578.61
2019-02-16T09:20:11.536Z,97587.95
2019-02-16T09:22:58.102Z,97592.69
2019-02-16T09:25:45.986Z,97586.54
2019-02-16T09:28:18.772Z,97588.48
2019-02-16T09:30:48.804Z,97583.05
2019-02-16T09:33:18.839Z,97594.56
2019-02-16T09:35:51.700Z,97587.92
2019-02-16T09:38:21.734Z,97586.53
2019-02-16T09:40:51.762Z,97589.77
2019-02-16T09:43:27.532Z,97583.60
2019-02-16T09:45:57.574Z,97582.55
2019-02-16T09:48:36.286Z,97574.81
2019-02-16T09:51:21.610Z,97580.33
2019-02-16T09:53:53.304Z,97582.76
2019-02-16T09:56:25.794Z,97585.53
2019-02-16T09:59:04.674Z,97591.42
2019-02-16T10:01:37.406Z,97588.92
2019-02-16T10:04:10.431Z,97584.84
2019-02-16T10:06:55.477Z,97582.00
2019-02-16T10:09:28.250Z,97584.05
2019-02-16T10:11:58.286Z,97598.50
2019-02-16T10:14:40.262Z,97582.58
2019-02-16T10:17:10.302Z,97589.39
2019-02-16T10:19:43.203Z,97586.16
2019-02-16T10:22:13.247Z,97579.33
2019-02-16T10:24:43.283Z,97577.84
2019-02-16T10:27:29.596Z,97572.05
2019-02-16T10:30:02.045Z,97577.91
2019-02-16T10:32:32.089Z,97569.67
2019-02-16T10:35:05.192Z,97572.64
2019-02-16T10:37:37.939Z,97566.73
2019-02-16T10:40:08.219Z,97572.21
2019-02-16T10:42:38.361Z,97565.34
2019-02-16T10:45:11.271Z,97571.03
2019-02-16T10:47:43.743Z,97562.27
2019-02-16T10:50:22.563Z,97562.82
2019-02-16T10:52:52.802Z,97556.41
2019-02-16T10:55:40.831Z,97556.58
2019-02-16T10:58:10.899Z,97550.73
2019-02-16T11:01:00.096Z,97548.39
2019-02-16T11:03:45.507Z,97545.50
2019-02-16T11:06:15.546Z,97543.48
2019-02-16T11:09:03.667Z,97539.42
2019-02-16T11:11:45.641Z,97539.45
2019-02-16T11:14:24.321Z,97538.15
2019-02-16T11:17:06.381Z,97527.84
2019-02-16T11:19:45.303Z,97530.17
2019-02-16T11:22:23.907Z,97521.89
2019-02-16T11:25:09.855Z,97522.09
2019-02-16T11:27:54.867Z,97517.14
2019-02-16T11:30:41.258Z,97520.28
2019-02-16T11:33:11.293Z,97517.30
2019-02-16T11:35:47.157Z,97515.97
2019-02-16T11:38:17.205Z,97516.48
2019-02-16T11:40:58.642Z,97520.67
2019-02-16T11:43:31.585Z,97511.27
2019-02-16T11:46:01.691Z,97519.34
2019-02-16T11:48:40.793Z,97517.96
2019-02-16T11:51:16.749Z,97515.70
2019-02-16T11:54:01.688Z,97513.53
2019-02-16T11:56:34.597Z,97507.60
2019-02-16T11:59:10.443Z,97503.68
2019-02-16T12:01:43.218Z,97505.28
2019-02-16T12:04:31.057Z,97506.99
2019-02-16T12:07:09.961Z,97503.79
2019-02-16T12:09:45.782Z,97498.45
2019-02-16T12:12:32.142Z,97497.42
2019-02-16T12:15:02.188Z,97492.08
2019-02-16T12:17:32.232Z,97495.50
2019-02-16T12:20:18.564Z,97489.14
2019-02-16T12:22:48.700Z,97488.53
2019-02-16T12:25:27.425Z,97481.62
2019-02-16T12:28:00.309Z,97488.02
2019-02-16T12:30:30.354Z,97474.32
2019-02-16T12:33:00.752Z,97472.93
2019-02-16T12:35:30.798Z,97467.20
2019-02-16T12:38:00.842Z,97461.48
2019-02-16T12:40:30.987Z,97460.05
2019-02-16T12:43:03.769Z,97460.30
2019-02-16T12:48:33.739Z,97455.28
2019-02-16T12:51:03.908Z,97452.03
2019-02-16T12:53:33.939Z,97452.56
2019-02-16T12:56:13.297Z,97446.48
2019-02-16T12:58:43.339Z,97448.70
2019-02-16T13:01:13.394Z,97446.92
2019-02-16T13:03:43.790Z,97442.51
2019-02-16T13:06:30.239Z,97440.36
2019-02-16T13:09:03.262Z,97439.12
2019-02-16T13:11:39.546Z,97435.55
2019-02-16T13:14:15.588Z,97437.41
2019-02-16T13:16:45.639Z,97433.75
2019-02-16T13:19:31.685Z,97436.93
2019-02-16T13:22:01.728Z,97435.78
2019-02-16T13:24:31.769Z,97429.79
2019-02-16T13:27:01.842Z,97430.30
2019-02-16T13:29:48.276Z,97425.13
2019-02-16T13:32:24.190Z,97413.16
2019-02-16T13:34:54.228Z,97407.99
2019-02-16T13:37:26.709Z,97405.53
2019-02-16T13:40:02.488Z,97401.20
2019-02-16T13:42:48.872Z,97392.77
2019-02-16T13:45:21.649Z,97396.26
2019-02-16T13:47:51.696Z,97387.81
2019-02-16T13:50:24.628Z,97391.14
2019-02-16T13:52:54.830Z,97387.83
2019-02-16T13:55:37.136Z,97384.50
2019-02-16T13:58:07.361Z,97381.18
2019-02-16T14:00:37.418Z,97382.86
2019-02-16T14:03:16.240Z,97372.88
2019-02-16T14:05:51.746Z,97373.39
2019-02-16T14:08:21.820Z,97371.90
2019-02-16T14:10:51.933Z,97370.06
2019-02-16T14:13:27.826Z,97361.76
2019-02-16T14:15:57.919Z,97364.92
2019-02-16T14:18:26.335Z,97366.25
2019-02-16T14:20:54.782Z,97371.56
2019-02-16T14:23:23.200Z,97359.58
2019-02-16T14:25:51.661Z,97364.39
2019-02-16T14:28:21.700Z,97364.90
2019-02-16T14:30:50.097Z,97363.72
2019-02-16T14:33:22.858Z,97362.23
2019-02-16T14:35:51.264Z,97356.73
2019-02-16T14:38:21.316Z,97357.08
2019-02-16T14:40:49.717Z,97362.07
2019-02-16T14:43:18.314Z,97358.92
2019-02-16T14:45:46.714Z,97356.58
2019-02-16T14:48:15.115Z,97352.05
2019-02-16T14:50:43.544Z,97349.52
2019-02-16T14:53:11.942Z,97348.86
2019-02-16T14:55:40.339Z,97346.85
2019-02-16T14:58:08.859Z,97342.20
2019-02-16T15:00:37.337Z,97341.54
2019-02-16T15:03:05.730Z,97346.87
2019-02-16T15:05:34.338Z,97349.86
2019-02-16T15:08:04.255Z,97346.72
2019-02-16T15:10:32.692Z,97346.23
2019-02-16T15:13:01.275Z,97340.58
2019-02-16T15:15:29.658Z,97340.59
2019-02-16T15:17:58.051Z,97336.28
2019-02-16T15:20:26.655Z,97337.78
2019-02-16T15:22:55.131Z,97338.09
2019-02-16T15:25:23.620Z,97340.91
2019-02-16T15:27:52.407Z,97336.04
2019-02-16T15:30:21.524Z,97343.60
2019-02-16T15:32:49.866Z,97346.89
2019-02-16T15:35:20.546Z,97348.49
2019-02-16T15:37:49.127Z,97346.61
2019-02-16T15:40:17.527Z,97348.21
2019-02-16T15:42:46.008Z,97344.84
2019-02-16T15:45:15.195Z,97345.27
2019-02-16T15:47:43.548Z,97343.61
2019-02-16T15:50:14.172Z,97341.55
2019-02-16T15:52:42.568Z,97338.55
2019-02-16T15:55:12.469Z,97339.83
2019-02-16T15:57:41.351Z,97339.42
2019-02-16T16:00:24.407Z,97337.19
2019-02-16T16:02:52.960Z,97341.76
2019-02-16T16:05:21.425Z,97334.03
2019-02-16T16:07:51.465Z,97338.03
2019-02-16T16:10:21.553Z,97335.75
2019-02-16T16:12:51.661Z,97333.95
2019-02-16T16:15:24.719Z,97336.63
2019-02-16T16:17:57.493Z,97338.20
2019-02-16T16:20:33.526Z,97337.53
2019-02-16T16:23:12.129Z,97339.09
2019-02-16T16:25:51.345Z,97336.08
2019-02-16T16:28:24.245Z,97337.40
2019-02-16T16:30:54.286Z,97336.06
2019-02-16T16:33:24.331Z,97332.27
2019-02-16T16:35:54.409Z,97336.26
2019-02-16T16:38:40.650Z,97331.48
2019-02-16T16:41:27.818Z,97328.34
2019-02-16T16:44:12.974Z,97328.49
2019-02-16T16:46:58.967Z,97337.62
2019-02-16T16:49:41.081Z,97339.52
2019-02-16T16:52:26.947Z,97331.23
2019-02-16T16:55:05.682Z,97330.60
2019-02-16T16:57:35.757Z,97340.98
2019-02-16T17:00:06.535Z,97336.09
2019-02-16T17:02:36.569Z,97344.78
2019-02-16T17:05:11.850Z,97341.66
2019-02-16T17:07:44.869Z,97340.05
2019-02-16T17:10:24.344Z,97345.88
2019-02-16T17:12:54.390Z,97346.77
2019-02-16T17:15:30.330Z,97348.30
2019-02-16T17:18:08.953Z,97345.16
2019-02-16T17:20:47.998Z,97354.24
2019-02-16T17:23:18.039Z,97354.42
2019-02-16T17:25:48.075Z,97360.24
2019-02-16T17:28:30.065Z,97365.91
2019-02-16T17:31:00.106Z,97361.41
2019-02-16T17:33:32.973Z,97358.19
2019-02-16T17:36:05.317Z,97372.83
2019-02-16T17:38:41.447Z,97379.22
2019-02-16T17:41:11.475Z,97373.99
2019-02-16T17:43:44.404Z,97373.33
2019-02-16T17:46:32.810Z,97384.63
2019-02-16T17:49:08.311Z,97381.53
2019-02-16T17:51:47.733Z,97380.25
2019-02-16T17:54:20.492Z,97385.94
2019-02-16T17:57:06.930Z,97389.43
2019-02-16T17:59:42.417Z,97381.22
2019-02-16T18:02:15.267Z,97386.98
2019-02-16T18:04:48.175Z,97384.38
2019-02-16T18:07:34.421Z,97385.72
2019-02-16T18:10:04.470Z,97384.44
2019-02-16T18:12:37.403Z,97383.97
2019-02-16T18:15:09.902Z,97385.90
2019-02-16T18:17:49.092Z,97383.53
2019-02-16T18:20:22.252Z,97387.39
2019-02-16T18:22:52.293Z,97386.92
2019-02-16T18:25:38.466Z,97384.80
2019-02-16T18:28:08.503Z,97384.34
2019-02-16T18:30:44.530Z,97385.66
2019-02-16T18:33:14.639Z,97383.39
2019-02-16T18:35:50.818Z,97388.17
2019-02-16T18:38:23.715Z,97381.58
2019-02-16T18:40:56.488Z,97390.70
2019-02-16T18:43:29.203Z,97395.63
2019-02-16T18:46:05.096Z,97395.52
2019-02-16T18:48:41.243Z,97389.08
2019-02-16T18:51:26.836Z,97395.82
2019-02-16T18:54:05.849Z,97389.03
2019-02-16T18:56:47.997Z,97388.08
2019-02-16T18:59:18.032Z,97383.53
2019-02-16T19:01:48.071Z,97379.14
2019-02-16T19:04:23.864Z,97387.76
2019-02-16T19:06:53.912Z,97383.44
2019-02-16T19:09:23.963Z,97384.53
2019-02-16T19:12:08.786Z,97386.22
2019-02-16T19:14:38.871Z,97379.87
2019-02-16T19:17:12.210Z,97382.05
2019-02-16T19:19:42.256Z,97381.45
2019-02-16T19:22:28.483Z,97378.34
2019-02-16T19:25:10.632Z,97379.54
2019-02-16T19:27:43.683Z,97381.57
2019-02-16T19:30:13.807Z,97383.38
2019-02-16T19:32:59.983Z,97384.58
2019-02-16T19:35:30.017Z,97384.69
2019-02-16T19:38:03.254Z,97386.12
2019-02-16T19:40:33.435Z,97373.19
2019-02-16T19:43:05.903Z,97377.14
2019-02-16T19:45:38.969Z,97374.77
2019-02-16T19:48:21.387Z,97380.25
2019-02-16T19:51:00.467Z,97377.28
2019-02-16T19:53:33.061Z,97380.73
2019-02-16T19:56:03.116Z,97374.64
2019-02-16T19:58:36.068Z,97378.10
2019-02-16T20:01:15.502Z,97382.16
2019-02-16T20:03:45.760Z,97379.30
2019-02-16T20:06:15.806Z,97376.44
2019-02-16T20:09:04.030Z,97372.72
2019-02-16T20:11:39.995Z,97377.27
2019-02-16T20:14:21.926Z,97382.17
2019-02-16T20:16:58.030Z,97379.66
2019-02-16T20:19:28.553Z,97383.34
2019-02-16T20:22:16.854Z,97380.25
2019-02-16T20:24:58.806Z,97391.83
2019-02-16T20:27:43.769Z,97387.55
2019-02-16T20:30:26.335Z,97387.77
2019-02-16T20:32:59.580Z,97387.64
2019-02-16T20:35:32.442Z,97385.38
2019-02-16T20:38:20.039Z,97383.34
2019-02-16T20:41:07.630Z,97386.43
2019-02-16T20:49:22.969Z,97384.78
2019-02-16T20:52:10.486Z,97384.30
2019-02-16T20:54:58.041Z,97387.41
2019-02-16T21:00:53.996Z,97378.32
2019-02-16T21:03:41.519Z,97375.31
2019-02-16T21:06:29.203Z,97385.84
2019-02-16T21:09:16.723Z,97380.11
2019-02-16T21:14:43.312Z,97384.86
2019-02-16T21:22:56.138Z,97380.92
2019-02-16T21:25:44.499Z,97382.60
2019-02-16T21:33:50.200Z,97372.55
2019-02-16T21:36:37.722Z,97378.77
2019-02-16T21:39:46.095Z,97383.20
2019-02-16T21:42:33.625Z,97379.70
2019-02-16T21:45:21.172Z,97386.16
2019-02-16T21:48:08.687Z,97381.14
2019-02-16T21:53:31.635Z,97372.66
2019-02-16T21:56:19.151Z,97370.02
2019-02-16T21:59:07.642Z,97367.88
2019-02-16T22:01:50.433Z,97376.22
2019-02-16T22:04:38.001Z,97370.73
2019-02-16T22:07:25.524Z,97363.78
2019-02-16T22:12:48.465Z,97363.19
2019-02-16T22:15:16.859Z,97363.08
2019-02-16T22:17:45.253Z,97359.14
2019-02-16T22:22:47.733Z,97357.94
2019-02-16T22:27:50.023Z,97355.18
2019-02-16T22:32:53.009Z,97356.03
2019-02-16T22:37:55.897Z,97345.61
2019-02-16T22:40:24.342Z,97339.36
2019-02-16T22:42:52.740Z,97338.64
2019-02-16T22:45:40.444Z,97340.66
2019-02-16T22:50:57.963Z,97330.23
2019-02-16T22:53:26.361Z,97326.68
2019-02-16T22:55:54.771Z,97335.12
2019-02-16T22:58:28.956Z,97320.67
2019-02-16T23:01:33.300Z,97324.61
2019-02-16T23:04:14.016Z,97332.48
2019-02-16T23:06:42.403Z,97323.44
2019-02-16T23:09:50.834Z,97321.75
2019-02-16T23:12:19.235Z,97327.83
2019-02-16T23:14:47.629Z,97310.77
2019-02-16T23:17:35.494Z,97321.05
2019-02-16T23:20:43.812Z,97320.11
2019-02-16T23:25:46.438Z,97308.64
2019-02-16T23:28:14.861Z,97319.75
2019-02-16T23:31:02.455Z,97297.66
2019-02-16T23:33:30.930Z,97304.50
2019-02-16T23:35:59.321Z,97294.34
2019-02-16T23:38:27.718Z,97301.88
2019-02-16T23:46:08.760Z,97294.32
2019-02-16T23:48:37.153Z,97295.62
2019-02-16T23:51:05.586Z,97291.55
2019-02-16T23:53:33.974Z,97287.25
2019-02-16T23:56:02.372Z,97293.09
2019-02-16T23:58:30.786Z,97286.64
